createdAt,value
2023-04-16T00:01:26.666Z,97211.16
2023-04-16T00:03:53.457Z,97200.75
2023-04-16T00:06:20.167Z,97202.69
2023-04-16T00:08:46.695Z,97206.91
2023-04-16T00:11:13.250Z,97205.22
2023-04-16T00:13:39.730Z,97212.88
2023-04-16T00:16:06.690Z,97205.22
2023-04-16T00:18:33.234Z,97214.59
2023-04-16T00:20:59.770Z,97212.00
2023-04-16T00:23:26.262Z,97210.25
2023-04-16T00:25:53.830Z,97218.78
2023-04-16T00:28:20.453Z,97215.44
2023-04-16T00:30:47.118Z,97215.44
2023-04-16T00:33:13.681Z,97212.88
2023-04-16T00:35:40.416Z,97215.44
2023-04-16T00:38:06.991Z,97212.00
2023-04-16T00:40:33.482Z,97212.00
2023-04-16T00:43:00.033Z,97215.38
2023-04-16T00:45:26.530Z,97213.69
2023-04-16T00:47:53.068Z,97233.22
2023-04-16T00:50:19.818Z,97219.59
2023-04-16T00:52:49.169Z,97220.44
2023-04-16T00:55:17.702Z,97214.50
2023-04-16T00:57:44.693Z,97198.00
2023-04-16T01:00:12.131Z,97223.84
2023-04-16T01:02:38.838Z,97214.47
2023-04-16T01:05:05.739Z,97215.34
2023-04-16T01:07:32.291Z,97216.13
2023-04-16T01:09:59.366Z,97218.69
2023-04-16T01:12:25.846Z,97218.69
2023-04-16T01:14:52.410Z,97205.78
2023-04-16T01:17:18.891Z,97216.13
2023-04-16T01:19:45.449Z,97216.13
2023-04-16T01:22:12.004Z,97214.47
2023-04-16T01:24:38.570Z,97217.00
2023-04-16T01:27:05.178Z,97190.06
2023-04-16T01:29:31.685Z,97217.88
2023-04-16T01:31:58.285Z,97230.63
2023-04-16T01:34:25.231Z,97227.22
2023-04-16T01:36:51.942Z,97223.78
2023-04-16T01:39:19.583Z,97228.88
2023-04-16T01:41:46.587Z,97223.84
2023-04-16T01:44:13.102Z,97232.34
2023-04-16T01:46:39.673Z,97228.09
2023-04-16T01:49:07.370Z,97226.28
2023-04-16T01:51:34.021Z,97226.38
2023-04-16T01:54:01.151Z,97235.75
2023-04-16T01:56:27.692Z,97230.63
2023-04-16T01:58:54.354Z,97231.44
2023-04-16T02:01:21.197Z,97230.59
2023-04-16T02:03:47.865Z,97226.34
2023-04-16T02:06:15.042Z,97221.22
2023-04-16T02:08:41.852Z,97225.50
2023-04-16T02:11:08.437Z,97225.50
2023-04-16T02:13:35.107Z,97226.34
2023-04-16T02:16:02.511Z,97225.50
2023-04-16T02:18:29.151Z,97223.72
2023-04-16T02:20:57.976Z,97227.16
2023-04-16T02:23:24.454Z,97228.00
2023-04-16T02:25:50.960Z,97233.13
2023-04-16T02:28:17.496Z,97251.00
2023-04-16T02:30:44.050Z,97237.38
2023-04-16T02:33:11.384Z,97241.63
2023-04-16T02:35:38.616Z,97240.78
2023-04-16T02:38:05.499Z,97241.63
2023-04-16T02:40:32.057Z,97240.84
2023-04-16T02:42:58.529Z,97250.16
2023-04-16T02:45:25.125Z,97248.44
2023-04-16T02:47:51.706Z,97245.94
2023-04-16T02:50:18.363Z,97245.06
2023-04-16T02:52:45.003Z,97251.88
2023-04-16T02:55:11.728Z,97240.69
2023-04-16T02:57:38.285Z,97251.84
2023-04-16T03:00:05.225Z,97238.94
2023-04-16T03:02:31.833Z,97255.25
2023-04-16T03:04:58.489Z,97246.72
2023-04-16T03:07:25.170Z,97251.84
2023-04-16T03:09:51.826Z,97247.59
2023-04-16T03:12:18.384Z,97255.25
2023-04-16T03:14:44.907Z,97256.94
2023-04-16T03:17:11.552Z,97260.31
2023-04-16T03:19:38.032Z,97264.59
2023-04-16T03:22:04.678Z,97264.53
2023-04-16T03:24:31.245Z,97256.88
2023-04-16T03:26:58.444Z,97263.75
2023-04-16T03:29:26.808Z,97248.91
2023-04-16T03:31:53.423Z,97267.09
2023-04-16T03:34:19.936Z,97268.84
2023-04-16T03:36:46.487Z,97268.84
2023-04-16T03:39:13.052Z,97270.50
2023-04-16T03:41:39.560Z,97273.94
2023-04-16T03:44:06.255Z,97278.16
2023-04-16T03:46:32.837Z,97275.66
2023-04-16T03:48:59.404Z,97276.50
2023-04-16T03:51:26.520Z,97279.88
2023-04-16T03:53:53.156Z,97276.50
2023-04-16T03:56:19.707Z,97296.00
2023-04-16T03:58:46.209Z,97282.44
2023-04-16T04:01:12.737Z,97284.97
2023-04-16T04:03:39.536Z,97284.97
2023-04-16T04:06:09.557Z,97285.84
2023-04-16T04:08:36.496Z,97284.13
2023-04-16T04:11:03.021Z,97285.84
2023-04-16T04:13:29.595Z,97289.28
2023-04-16T04:15:56.214Z,97290.09
2023-04-16T04:18:22.798Z,97307.94
2023-04-16T04:20:49.373Z,97290.97
2023-04-16T04:23:16.194Z,97292.63
2023-04-16T04:25:42.694Z,97287.53
2023-04-16T04:28:09.233Z,97294.34
2023-04-16T04:30:36.060Z,97296.06
2023-04-16T04:33:02.627Z,97291.75
2023-04-16T04:35:29.137Z,97303.66
2023-04-16T04:37:55.724Z,97302.78
2023-04-16T04:40:22.354Z,97305.34
2023-04-16T04:42:49.004Z,97312.16
2023-04-16T04:45:15.597Z,97307.88
2023-04-16T04:47:42.223Z,97309.59
2023-04-16T04:50:09.262Z,97301.75
2023-04-16T04:52:35.927Z,97318.09
2023-04-16T04:55:02.441Z,97322.38
2023-04-16T04:57:28.977Z,97318.09
2023-04-16T04:59:55.537Z,97318.91
2023-04-16T05:02:22.096Z,97318.09
2023-04-16T05:04:48.749Z,97318.97
2023-04-16T05:07:15.308Z,97321.50
2023-04-16T05:09:41.831Z,97325.75
2023-04-16T05:12:08.448Z,97323.19
2023-04-16T05:14:36.313Z,97320.63
2023-04-16T05:17:02.950Z,97330.03
2023-04-16T05:19:29.621Z,97315.28
2023-04-16T05:21:56.258Z,97323.03
2023-04-16T05:24:22.930Z,97337.63
2023-04-16T05:26:49.465Z,97335.00
2023-04-16T05:29:15.991Z,97328.09
2023-04-16T05:31:42.545Z,97338.44
2023-04-16T05:34:09.072Z,97341.88
2023-04-16T05:36:35.769Z,97347.84
2023-04-16T05:39:02.376Z,97347.00
2023-04-16T05:41:28.995Z,97350.44
2023-04-16T05:43:55.661Z,97352.13
2023-04-16T05:46:22.272Z,97347.75
2023-04-16T05:48:48.787Z,97357.22
2023-04-16T05:51:15.351Z,97348.69
2023-04-16T05:53:42.026Z,97356.34
2023-04-16T05:56:08.640Z,97367.47
2023-04-16T05:58:35.226Z,97361.50
2023-04-16T06:01:01.823Z,97362.25
2023-04-16T06:03:28.484Z,97368.28
2023-04-16T06:05:55.443Z,97362.16
2023-04-16T06:08:22.171Z,97356.19
2023-04-16T06:10:48.699Z,97377.66
2023-04-16T06:13:15.199Z,97370.91
2023-04-16T06:15:41.883Z,97356.91
2023-04-16T06:18:08.495Z,97379.38
2023-04-16T06:20:35.067Z,97371.75
2023-04-16T06:23:01.611Z,97375.16
2023-04-16T06:25:28.189Z,97374.28
2023-04-16T06:27:54.686Z,97369.25
2023-04-16T06:30:21.212Z,97371.84
2023-04-16T06:32:48.022Z,97373.53
2023-04-16T06:35:14.721Z,97375.28
2023-04-16T06:37:41.551Z,97374.38
2023-04-16T06:40:08.634Z,97389.75
2023-04-16T06:42:35.339Z,97375.16
2023-04-16T06:45:01.896Z,97389.78
2023-04-16T06:47:28.441Z,97394.91
2023-04-16T06:49:55.059Z,97369.91
2023-04-16T06:52:21.565Z,97388.13
2023-04-16T06:54:48.343Z,97393.22
2023-04-16T06:57:14.860Z,97397.44
2023-04-16T06:59:41.448Z,97395.72
2023-04-16T07:02:09.992Z,97402.50
2023-04-16T07:04:36.703Z,97401.66
2023-04-16T07:07:03.220Z,97400.78
2023-04-16T07:09:29.700Z,97401.59
2023-04-16T07:11:56.290Z,97341.72
2023-04-16T07:14:22.897Z,97382.47
2023-04-16T07:16:49.543Z,97389.44
2023-04-16T07:19:16.135Z,97398.13
2023-04-16T07:21:43.737Z,97398.06
2023-04-16T07:24:11.818Z,97378.88
2023-04-16T07:26:38.382Z,97397.97
2023-04-16T07:29:04.949Z,97404.78
2023-04-16T07:31:31.509Z,97412.44
2023-04-16T07:33:58.478Z,97413.25
2023-04-16T07:36:25.021Z,97408.16
2023-04-16T07:38:51.566Z,97391.66
2023-04-16T07:41:18.047Z,97409.84
2023-04-16T07:43:44.561Z,97384.63
2023-04-16T07:46:11.355Z,97409.03
2023-04-16T07:48:37.890Z,97412.28
2023-04-16T07:51:04.480Z,97414.09
2023-04-16T07:53:31.010Z,97417.53
2023-04-16T07:55:57.557Z,97412.38
2023-04-16T07:58:24.071Z,97420.09
2023-04-16T08:00:51.346Z,97431.22
2023-04-16T08:03:18.505Z,97428.66
2023-04-16T08:05:45.280Z,97427.84
2023-04-16T08:08:11.857Z,97426.13
2023-04-16T08:10:39.086Z,97425.25
2023-04-16T08:13:05.722Z,97421.03
2023-04-16T08:15:32.421Z,97425.25
2023-04-16T08:17:59.701Z,97425.91
2023-04-16T08:20:26.302Z,97428.47
2023-04-16T08:22:53.808Z,97416.28
2023-04-16T08:25:20.818Z,97426.63
2023-04-16T08:27:47.430Z,97434.59
2023-04-16T08:30:15.159Z,97446.47
2023-04-16T08:32:41.754Z,97441.22
2023-04-16T08:35:08.898Z,97443.88
2023-04-16T08:37:35.435Z,97448.09
2023-04-16T08:40:02.560Z,97449.03
2023-04-16T08:42:45.049Z,97457.53
2023-04-16T08:45:16.140Z,97445.47
2023-04-16T08:47:46.783Z,97448.84
2023-04-16T08:50:17.094Z,97442.66
2023-04-16T08:52:47.301Z,97447.25
2023-04-16T08:55:14.534Z,97465.25
2023-04-16T08:57:47.515Z,97455.06
2023-04-16T09:00:14.599Z,97461.81
2023-04-16T09:02:41.224Z,97461.00
2023-04-16T09:05:08.378Z,97453.13
2023-04-16T09:07:35.414Z,97473.75
2023-04-16T09:10:02.071Z,97445.09
2023-04-16T09:12:28.669Z,97476.31
2023-04-16T09:14:55.227Z,97467.69
2023-04-16T09:17:21.854Z,97478.06
2023-04-16T09:19:48.498Z,97486.50
2023-04-16T09:22:15.065Z,97486.50
2023-04-16T09:24:41.983Z,97487.31
2023-04-16T09:27:08.860Z,97489.94
2023-04-16T09:29:36.492Z,97490.81
2023-04-16T09:32:10.090Z,97477.78
2023-04-16T09:34:54.600Z,97491.59
2023-04-16T09:37:21.134Z,97494.97
2023-04-16T09:39:56.574Z,97477.69
2023-04-16T09:42:30.973Z,97488.19
2023-04-16T09:45:00.320Z,97485.66
2023-04-16T09:47:41.724Z,97489.88
2023-04-16T09:50:11.272Z,97484.72
2023-04-16T09:52:39.057Z,97493.31
2023-04-16T09:55:06.155Z,97494.03
2023-04-16T09:57:32.708Z,97496.66
2023-04-16T10:00:03.590Z,97491.53
2023-04-16T10:02:30.611Z,97487.16
2023-04-16T10:04:57.852Z,97474.09
2023-04-16T10:07:28.088Z,97494.81
2023-04-16T10:09:55.824Z,97499.84
2023-04-16T10:12:22.317Z,97506.91
2023-04-16T10:14:50.287Z,97496.47
2023-04-16T10:17:17.306Z,97505.22
2023-04-16T10:19:43.812Z,97509.44
2023-04-16T10:22:10.350Z,97512.88
2023-04-16T10:24:36.933Z,97515.44
2023-04-16T10:27:03.596Z,97513.75
2023-04-16T10:29:30.775Z,97517.16
2023-04-16T10:31:57.383Z,97507.66
2023-04-16T10:34:24.414Z,97505.91
2023-04-16T10:36:52.935Z,97515.44
2023-04-16T10:39:21.286Z,97520.47
2023-04-16T10:41:47.912Z,97516.25
2023-04-16T10:44:16.670Z,97527.31
2023-04-16T10:46:43.950Z,97529.00
2023-04-16T10:49:19.135Z,97524.69
2023-04-16T10:52:03.731Z,97526.47
2023-04-16T10:54:30.893Z,97524.69
2023-04-16T10:56:59.202Z,97517.81
2023-04-16T10:59:25.922Z,97516.88
2023-04-16T11:01:54.559Z,97531.56
2023-04-16T11:04:21.328Z,97529.00
2023-04-16T11:07:01.023Z,97525.47
2023-04-16T11:09:56.484Z,97523.91
2023-04-16T11:12:27.863Z,97525.47
2023-04-16T11:15:04.294Z,97523.03
2023-04-16T11:17:33.034Z,97523.91
2023-04-16T11:19:59.638Z,97521.25
2023-04-16T11:22:26.296Z,97518.75
2023-04-16T11:24:56.492Z,97517.94
2023-04-16T11:27:26.371Z,97522.19
2023-04-16T11:30:06.380Z,97526.47
2023-04-16T11:32:33.905Z,97530.69
2023-04-16T11:35:03.771Z,97531.50
2023-04-16T11:37:36.990Z,97533.22
2023-04-16T11:40:07.243Z,97536.66
2023-04-16T11:42:37.134Z,97533.19
2023-04-16T11:45:04.118Z,97537.50
2023-04-16T11:47:31.447Z,97539.22
2023-04-16T11:49:58.522Z,97539.22
2023-04-16T11:52:27.775Z,97540.88
2023-04-16T11:54:54.389Z,97540.06
2023-04-16T11:57:27.831Z,97539.22
2023-04-16T12:00:01.935Z,97541.75
2023-04-16T12:02:42.397Z,97542.59
2023-04-16T12:05:30.767Z,97539.25
2023-04-16T12:07:58.160Z,97540.94
2023-04-16T12:10:24.838Z,97549.47
2023-04-16T12:12:51.880Z,97545.22
2023-04-16T12:15:18.472Z,97549.47
2023-04-16T12:17:45.049Z,97561.41
2023-04-16T12:20:17.653Z,97541.00
2023-04-16T12:22:48.281Z,97545.25
2023-04-16T12:25:16.348Z,97551.25
2023-04-16T12:27:47.263Z,97546.97
2023-04-16T12:30:15.432Z,97538.44
2023-04-16T12:32:42.569Z,97542.66
2023-04-16T12:35:12.907Z,97538.38
2023-04-16T12:37:39.528Z,97530.72
2023-04-16T12:40:07.026Z,97542.66
2023-04-16T12:42:37.130Z,97541.72
2023-04-16T12:45:04.975Z,97532.28
2023-04-16T12:47:34.522Z,97542.66
2023-04-16T12:50:01.388Z,97542.72
2023-04-16T12:52:28.057Z,97538.50
2023-04-16T12:54:54.647Z,97541.97
2023-04-16T12:57:21.230Z,97542.81
2023-04-16T12:59:47.746Z,97536.06
2023-04-16T13:02:14.378Z,97530.13
2023-04-16T13:04:41.128Z,97531.00
2023-04-16T13:07:08.024Z,97542.09
2023-04-16T13:09:34.610Z,97536.97
2023-04-16T13:12:01.579Z,97545.47
2023-04-16T13:14:28.135Z,97525.78
2023-04-16T13:16:54.695Z,97525.97
2023-04-16T13:19:21.246Z,97528.47
2023-04-16T13:21:47.827Z,97528.50
2023-04-16T13:24:14.383Z,97529.38
2023-04-16T13:26:40.907Z,97521.75
2023-04-16T13:29:07.529Z,97521.63
2023-04-16T13:31:34.231Z,97531.13
2023-04-16T13:34:00.873Z,97531.16
2023-04-16T13:36:27.825Z,97533.72
2023-04-16T13:38:54.602Z,97526.94
2023-04-16T13:41:21.172Z,97523.56
2023-04-16T13:43:47.726Z,97537.19
2023-04-16T13:46:14.299Z,97536.31
2023-04-16T13:48:40.845Z,97527.84
2023-04-16T13:51:08.381Z,97526.16
2023-04-16T13:53:34.974Z,97518.31
2023-04-16T13:56:03.657Z,97530.41
2023-04-16T13:58:30.376Z,97527.00
2023-04-16T14:00:56.944Z,97527.84
2023-04-16T14:03:25.483Z,97527.84
2023-04-16T14:05:52.153Z,97530.41
2023-04-16T14:08:21.257Z,97522.69
2023-04-16T14:10:48.272Z,97530.34
2023-04-16T14:13:14.795Z,97516.53
2023-04-16T14:15:41.319Z,97528.66
2023-04-16T14:18:07.979Z,97533.78
2023-04-16T14:20:34.553Z,97529.50
2023-04-16T14:23:01.104Z,97528.56
2023-04-16T14:25:27.738Z,97534.59
2023-04-16T14:27:54.281Z,97534.59
2023-04-16T14:30:20.996Z,97533.72
2023-04-16T14:32:47.595Z,97526.00
2023-04-16T14:35:14.154Z,97532.00
2023-04-16T14:37:41.330Z,97525.91
2023-04-16T14:40:08.990Z,97535.34
2023-04-16T14:42:39.094Z,97540.44
2023-04-16T14:45:06.700Z,97538.78
2023-04-16T14:47:36.900Z,97534.50
2023-04-16T14:50:03.715Z,97533.56
2023-04-16T14:52:33.304Z,97531.00
2023-04-16T14:54:59.849Z,97535.22
2023-04-16T14:57:26.807Z,97538.72
2023-04-16T14:59:53.375Z,97543.81
2023-04-16T15:02:20.057Z,97540.31
2023-04-16T15:04:46.646Z,97542.09
2023-04-16T15:07:13.205Z,97546.31
2023-04-16T15:09:39.768Z,97550.53
2023-04-16T15:12:06.407Z,97553.09
2023-04-16T15:14:32.954Z,97547.88
2023-04-16T15:16:59.566Z,97547.94
2023-04-16T15:19:26.229Z,97550.19
2023-04-16T15:21:52.969Z,97544.53
2023-04-16T15:24:19.477Z,97549.56
2023-04-16T15:26:46.263Z,97543.59
2023-04-16T15:29:12.863Z,97550.38
2023-04-16T15:31:39.460Z,97556.34
2023-04-16T15:34:05.965Z,97554.56
2023-04-16T15:36:32.601Z,97551.03
2023-04-16T15:38:59.110Z,97557.97
2023-04-16T15:41:25.723Z,97558.78
2023-04-16T15:43:52.305Z,97554.50
2023-04-16T15:46:18.947Z,97563.88
2023-04-16T15:48:45.740Z,97559.59
2023-04-16T15:51:12.301Z,97562.09
2023-04-16T15:53:39.016Z,97569.81
2023-04-16T15:56:05.902Z,97567.25
2023-04-16T15:58:32.512Z,97578.31
2023-04-16T16:00:59.104Z,97578.31
2023-04-16T16:03:26.338Z,97573.97
2023-04-16T16:05:53.045Z,97586.91
2023-04-16T16:08:19.615Z,97587.78
2023-04-16T16:10:46.689Z,97593.72
2023-04-16T16:13:15.961Z,97595.47
2023-04-16T16:15:42.477Z,97597.22
2023-04-16T16:18:09.024Z,97596.38
2023-04-16T16:20:36.680Z,97596.44
2023-04-16T16:23:03.428Z,97596.44
2023-04-16T16:25:30.357Z,97600.81
2023-04-16T16:27:56.916Z,97603.38
2023-04-16T16:30:23.508Z,97601.72
2023-04-16T16:32:50.762Z,97589.66
2023-04-16T16:35:17.369Z,97600.97
2023-04-16T16:37:44.006Z,97601.81
2023-04-16T16:40:11.199Z,97600.22
2023-04-16T16:42:37.827Z,97605.38
2023-04-16T16:45:06.030Z,97604.53
2023-04-16T16:47:33.068Z,97597.78
2023-04-16T16:50:01.410Z,97602.88
2023-04-16T16:52:29.379Z,97603.81
2023-04-16T16:54:56.843Z,97605.53
2023-04-16T16:57:26.433Z,97602.16
2023-04-16T16:59:54.411Z,97604.84
2023-04-16T17:02:21.110Z,97604.00
2023-04-16T17:04:47.875Z,97611.78
2023-04-16T17:07:14.538Z,97606.72
2023-04-16T17:09:41.281Z,97605.91
2023-04-16T17:12:07.993Z,97592.84
2023-04-16T17:14:35.281Z,97613.56
2023-04-16T17:17:01.988Z,97604.16
2023-04-16T17:19:28.652Z,97618.72
2023-04-16T17:21:55.314Z,97623.81
2023-04-16T17:24:22.036Z,97620.38
2023-04-16T17:26:48.564Z,97622.13
2023-04-16T17:29:15.385Z,97621.31
2023-04-16T17:31:41.884Z,97620.44
2023-04-16T17:34:08.593Z,97599.50
2023-04-16T17:36:35.369Z,97631.53
2023-04-16T17:39:02.338Z,97617.03
2023-04-16T17:41:28.882Z,97580.34
2023-04-16T17:43:55.439Z,97633.25
2023-04-16T17:46:21.997Z,97635.81
2023-04-16T17:48:48.935Z,97626.41
2023-04-16T17:51:16.570Z,97629.84
2023-04-16T17:53:43.585Z,97637.50
2023-04-16T17:56:10.850Z,97636.63
2023-04-16T17:58:37.410Z,97645.16
2023-04-16T18:01:05.472Z,97645.94
2023-04-16T18:03:32.442Z,97642.50
2023-04-16T18:05:59.310Z,97645.09
2023-04-16T18:08:26.198Z,97647.59
2023-04-16T18:10:52.801Z,97654.44
2023-04-16T18:13:19.333Z,97650.16
2023-04-16T18:15:46.122Z,97624.91
2023-04-16T18:18:12.797Z,97649.16
2023-04-16T18:20:39.279Z,97662.97
2023-04-16T18:23:05.923Z,97654.38
2023-04-16T18:25:34.918Z,97670.63
2023-04-16T18:28:03.618Z,97668.81
2023-04-16T18:30:30.307Z,97675.72
2023-04-16T18:33:25.471Z,97669.69
2023-04-16T18:35:43.490Z,97680.84
2023-04-16T18:38:10.089Z,97679.00
2023-04-16T18:40:36.994Z,97683.28
2023-04-16T18:43:03.977Z,97689.22
2023-04-16T18:45:30.888Z,97690.94
2023-04-16T18:48:02.795Z,97687.59
2023-04-16T18:50:29.492Z,97700.31
2023-04-16T18:52:56.099Z,97689.16
2023-04-16T18:55:22.700Z,97699.44
2023-04-16T18:57:49.279Z,97697.75
2023-04-16T19:00:16.413Z,97701.19
2023-04-16T19:02:43.042Z,97707.13
2023-04-16T19:05:09.892Z,97702.81
2023-04-16T19:07:37.546Z,97708.84
2023-04-16T19:10:05.266Z,97707.97
2023-04-16T19:12:32.215Z,97719.06
2023-04-16T19:14:58.991Z,97713.94
2023-04-16T19:17:25.597Z,97723.34
2023-04-16T19:19:52.189Z,97712.13
2023-04-16T19:22:18.670Z,97687.00
2023-04-16T19:24:45.170Z,97719.00
2023-04-16T19:27:11.706Z,97717.28
2023-04-16T19:29:38.297Z,97728.44
2023-04-16T19:32:04.945Z,97717.34
2023-04-16T19:34:31.534Z,97736.97
2023-04-16T19:36:58.154Z,97720.78
2023-04-16T19:39:31.529Z,97715.69
2023-04-16T19:41:58.151Z,97724.09
2023-04-16T19:44:25.217Z,97723.34
2023-04-16T19:46:51.735Z,97725.88
2023-04-16T19:49:18.396Z,97725.88
2023-04-16T19:51:46.146Z,97728.44
2023-04-16T19:54:13.338Z,97731.03
2023-04-16T19:56:39.926Z,97720.72
2023-04-16T19:59:06.873Z,97734.41
2023-04-16T20:01:33.526Z,97730.09
2023-04-16T20:04:00.306Z,97724.09
2023-04-16T20:06:27.782Z,97725.00
2023-04-16T20:08:54.775Z,97731.94
2023-04-16T20:11:21.347Z,97729.25
2023-04-16T20:13:48.076Z,97727.50
2023-04-16T20:16:14.770Z,97731.94
2023-04-16T20:18:41.536Z,97731.81
2023-04-16T20:21:08.853Z,97731.09
2023-04-16T20:23:35.450Z,97732.78
2023-04-16T20:26:02.000Z,97729.25
2023-04-16T20:28:28.521Z,97730.16
2023-04-16T20:30:55.086Z,97731.00
2023-04-16T20:33:21.679Z,97730.16
2023-04-16T20:35:49.074Z,97729.25
2023-04-16T20:38:15.586Z,97729.25
2023-04-16T20:40:44.659Z,97713.50
2023-04-16T20:43:14.210Z,97724.88
2023-04-16T20:45:41.238Z,97725.72
2023-04-16T20:48:07.984Z,97687.41
2023-04-16T20:50:34.571Z,97724.78
2023-04-16T20:53:01.118Z,97727.31
2023-04-16T20:55:27.673Z,97721.38
2023-04-16T20:57:54.201Z,97712.47
2023-04-16T21:00:20.905Z,97730.66
2023-04-16T21:02:47.598Z,97730.53
2023-04-16T21:05:14.632Z,97723.72
2023-04-16T21:07:41.517Z,97731.50
2023-04-16T21:10:09.293Z,97730.59
2023-04-16T21:12:36.490Z,97727.81
2023-04-16T21:15:04.165Z,97722.91
2023-04-16T21:17:31.061Z,97725.44
2023-04-16T21:19:57.725Z,97716.69
2023-04-16T21:22:24.331Z,97731.38
2023-04-16T21:24:50.883Z,97726.22
2023-04-16T21:27:17.567Z,97733.91
2023-04-16T21:29:44.058Z,97726.09
2023-04-16T21:32:10.589Z,97727.00
2023-04-16T21:34:37.107Z,97739.81
2023-04-16T21:37:03.851Z,97727.00
2023-04-16T21:39:31.131Z,97738.97
2023-04-16T21:41:58.020Z,97738.16
2023-04-16T21:44:24.587Z,97737.25
2023-04-16T21:46:51.250Z,97738.03
2023-04-16T21:49:17.789Z,97732.94
2023-04-16T21:51:46.066Z,97733.88
2023-04-16T21:54:12.605Z,97734.53
2023-04-16T21:56:39.403Z,97730.25
2023-04-16T21:59:05.956Z,97737.97
2023-04-16T22:01:32.638Z,97735.47
2023-04-16T22:03:59.366Z,97737.16
2023-04-16T22:06:27.166Z,97738.84
2023-04-16T22:08:53.696Z,97743.06
2023-04-16T22:11:20.722Z,97734.47
2023-04-16T22:13:47.598Z,97730.25
2023-04-16T22:16:14.410Z,97730.19
2023-04-16T22:18:41.201Z,97732.81
2023-04-16T22:21:07.769Z,97725.16
2023-04-16T22:23:34.298Z,97719.75
2023-04-16T22:26:02.682Z,97717.38
2023-04-16T22:28:29.278Z,97730.19
2023-04-16T22:30:56.362Z,97721.50
2023-04-16T22:33:22.889Z,97727.53
2023-04-16T22:35:49.466Z,97725.97
2023-04-16T22:38:16.551Z,97732.81
2023-04-16T22:40:43.114Z,97734.47
2023-04-16T22:43:09.655Z,97725.91
2023-04-16T22:45:37.435Z,97734.47
2023-04-16T22:48:04.234Z,97736.19
2023-04-16T22:50:32.006Z,97725.84
2023-04-16T22:52:58.560Z,97727.59
2023-04-16T22:55:25.124Z,97726.75
2023-04-16T22:57:51.693Z,97731.09
2023-04-16T23:00:18.903Z,97733.63
2023-04-16T23:02:45.723Z,97725.97
2023-04-16T23:05:12.343Z,97728.41
2023-04-16T23:07:38.913Z,97731.09
2023-04-16T23:10:06.214Z,97734.47
2023-04-16T23:12:32.782Z,97734.47
2023-04-16T23:15:00.537Z,97729.38
2023-04-16T23:17:27.295Z,97737.91
2023-04-16T23:19:53.925Z,97727.72
2023-04-16T23:22:20.528Z,97724.28
2023-04-16T23:24:47.205Z,97725.97
2023-04-16T23:27:13.700Z,97724.22
2023-04-16T23:29:40.427Z,97731.94
2023-04-16T23:32:07.058Z,97703.47
2023-04-16T23:34:33.567Z,97711.34
2023-04-16T23:37:00.221Z,97652.91
2023-04-16T23:39:27.228Z,97723.44
2023-04-16T23:41:53.835Z,97715.78
2023-04-16T23:44:20.358Z,97722.59
2023-04-16T23:46:46.946Z,97718.22
2023-04-16T23:49:13.590Z,97725.09
2023-04-16T23:51:40.143Z,97721.59
2023-04-16T23:54:06.658Z,97721.53
2023-04-16T23:56:33.171Z,97711.34
2023-04-16T23:58:59.699Z,97714.84
